sensor_id;sensor_type;location;lat;lon;timestamp;P1;durP1;ratioP1;P2;durP2;ratioP2
14472;SDS011;7322;50.872;4.386;2023-11-22T00:01:10;2.10;;;1.80;;
14472;SDS011;7322;50.872;4.386;2023-11-22T00:03:37;2.30;;;1.93;;
14472;SDS011;7322;50.872;4.386;2023-11-22T00:06:04;2.20;;;1.90;;
14472;SDS011;7322;50.872;4.386;2023-11-22T00:08:32;1.70;;;1.60;;
14472;SDS011;7322;50.872;4.386;2023-11-22T00:10:59;1.70;;;1.60;;
14472;SDS011;7322;50.872;4.386;2023-11-22T00:13:26;2.47;;;2.03;;
14472;SDS011;7322;50.872;4.386;2023-11-22T00:15:54;3.00;;;2.30;;
14472;SDS011;7322;50.872;4.386;2023-11-22T00:18:23;2.20;;;2.00;;
14472;SDS011;7322;50.872;4.386;2023-11-22T00:20:51;2.03;;;1.87;;
14472;SDS011;7322;50.872;4.386;2023-11-22T00:23:20;1.80;;;1.70;;
14472;SDS011;7322;50.872;4.386;2023-11-22T00:25:52;1.87;;;1.67;;
14472;SDS011;7322;50.872;4.386;2023-11-22T00:28:19;2.07;;;1.87;;
14472;SDS011;7322;50.872;4.386;2023-11-22T00:30:46;1.90;;;1.80;;
14472;SDS011;7322;50.872;4.386;2023-11-22T00:33:13;2.10;;;1.90;;
14472;SDS011;7322;50.872;4.386;2023-11-22T00:35:42;2.10;;;1.90;;
14472;SDS011;7322;50.872;4.386;2023-11-22T00:38:09;2.60;;;1.87;;
14472;SDS011;7322;50.872;4.386;2023-11-22T00:40:37;2.10;;;1.90;;
14472;SDS011;7322;50.872;4.386;2023-11-22T00:43:04;2.10;;;1.90;;
14472;SDS011;7322;50.872;4.386;2023-11-22T00:45:31;2.20;;;2.00;;
14472;SDS011;7322;50.872;4.386;2023-11-22T00:47:58;2.20;;;2.00;;
14472;SDS011;7322;50.872;4.386;2023-11-22T00:50:26;1.80;;;1.70;;
14472;SDS011;7322;50.872;4.386;2023-11-22T00:52:55;1.80;;;1.70;;
14472;SDS011;7322;50.872;4.386;2023-11-22T00:55:22;2.37;;;2.17;;
14472;SDS011;7322;50.872;4.386;2023-11-22T00:57:49;1.80;;;1.70;;
14472;SDS011;7322;50.872;4.386;2023-11-22T01:00:16;2.43;;;2.23;;
14472;SDS011;7322;50.872;4.386;2023-11-22T01:02:43;1.90;;;1.60;;
14472;SDS011;7322;50.872;4.386;2023-11-22T01:05:10;2.13;;;1.90;;
14472;SDS011;7322;50.872;4.386;2023-11-22T01:07:38;2.10;;;1.70;;
14472;SDS011;7322;50.872;4.386;2023-11-22T01:10:07;1.80;;;1.70;;
14472;SDS011;7322;50.872;4.386;2023-11-22T01:12:35;2.13;;;1.93;;
14472;SDS011;7322;50.872;4.386;2023-11-22T01:15:02;2.60;;;2.10;;
14472;SDS011;7322;50.872;4.386;2023-11-22T01:17:31;1.87;;;1.70;;
14472;SDS011;7322;50.872;4.386;2023-11-22T01:19:58;1.97;;;1.77;;
14472;SDS011;7322;50.872;4.386;2023-11-22T01:22:25;2.20;;;2.00;;
14472;SDS011;7322;50.872;4.386;2023-11-22T01:24:52;2.00;;;1.80;;
14472;SDS011;7322;50.872;4.386;2023-11-22T01:27:20;2.03;;;1.83;;
14472;SDS011;7322;50.872;4.386;2023-11-22T01:29:49;2.20;;;1.97;;
14472;SDS011;7322;50.872;4.386;2023-11-22T01:32:17;3.13;;;2.20;;
14472;SDS011;7322;50.872;4.386;2023-11-22T01:34:44;2.40;;;2.10;;
14472;SDS011;7322;50.872;4.386;2023-11-22T01:37:11;2.57;;;2.07;;
14472;SDS011;7322;50.872;4.386;2023-11-22T01:39:39;2.20;;;2.00;;
14472;SDS011;7322;50.872;4.386;2023-11-22T01:42:06;2.30;;;1.97;;
14472;SDS011;7322;50.872;4.386;2023-11-22T01:44:35;2.00;;;1.80;;
14472;SDS011;7322;50.872;4.386;2023-11-22T01:47:02;2.60;;;2.00;;
14472;SDS011;7322;50.872;4.386;2023-11-22T01:49:32;2.27;;;2.00;;
14472;SDS011;7322;50.872;4.386;2023-11-22T01:52:00;2.50;;;2.30;;
14472;SDS011;7322;50.872;4.386;2023-11-22T01:54:30;2.57;;;2.13;;
14472;SDS011;7322;50.872;4.386;2023-11-22T01:56:58;2.47;;;2.00;;
14472;SDS011;7322;50.872;4.386;2023-11-22T01:59:26;2.57;;;2.37;;
14472;SDS011;7322;50.872;4.386;2023-11-22T02:01:58;2.13;;;1.90;;
14472;SDS011;7322;50.872;4.386;2023-11-22T02:04:25;2.50;;;2.13;;
14472;SDS011;7322;50.872;4.386;2023-11-22T02:06:51;2.10;;;2.00;;
14472;SDS011;7322;50.872;4.386;2023-11-22T02:09:20;2.23;;;2.03;;
14472;SDS011;7322;50.872;4.386;2023-11-22T02:11:47;2.00;;;1.77;;
14472;SDS011;7322;50.872;4.386;2023-11-22T02:14:16;2.47;;;2.27;;
14472;SDS011;7322;50.872;4.386;2023-11-22T02:16:43;2.20;;;2.00;;
14472;SDS011;7322;50.872;4.386;2023-11-22T02:19:13;2.20;;;2.00;;
14472;SDS011;7322;50.872;4.386;2023-11-22T02:21:41;2.20;;;2.00;;
14472;SDS011;7322;50.872;4.386;2023-11-22T02:24:10;2.97;;;2.10;;
14472;SDS011;7322;50.872;4.386;2023-11-22T02:26:37;2.33;;;2.13;;
14472;SDS011;7322;50.872;4.386;2023-11-22T02:29:04;1.97;;;1.87;;
14472;SDS011;7322;50.872;4.386;2023-11-22T02:34:01;2.50;;;2.10;;
14472;SDS011;7322;50.872;4.386;2023-11-22T02:36:28;2.13;;;1.93;;
14472;SDS011;7322;50.872;4.386;2023-11-22T02:38:56;3.90;;;2.20;;
14472;SDS011;7322;50.872;4.386;2023-11-22T02:41:24;2.20;;;2.07;;
14472;SDS011;7322;50.872;4.386;2023-11-22T02:43:54;2.23;;;2.03;;
14472;SDS011;7322;50.872;4.386;2023-11-22T02:46:21;2.17;;;2.03;;
14472;SDS011;7322;50.872;4.386;2023-11-22T02:48:48;2.27;;;2.00;;
14472;SDS011;7322;50.872;4.386;2023-11-22T02:51:15;2.40;;;2.13;;
14472;SDS011;7322;50.872;4.386;2023-11-22T02:53:43;2.30;;;2.10;;
14472;SDS011;7322;50.872;4.386;2023-11-22T02:56:11;3.40;;;2.30;;
14472;SDS011;7322;50.872;4.386;2023-11-22T02:58:39;2.10;;;1.90;;
14472;SDS011;7322;50.872;4.386;2023-11-22T03:01:07;2.00;;;1.90;;
14472;SDS011;7322;50.872;4.386;2023-11-22T03:03:34;2.40;;;2.20;;
14472;SDS011;7322;50.872;4.386;2023-11-22T03:06:01;2.20;;;2.00;;
14472;SDS011;7322;50.872;4.386;2023-11-22T03:08:28;2.33;;;2.13;;
14472;SDS011;7322;50.872;4.386;2023-11-22T03:10:58;2.50;;;2.17;;
14472;SDS011;7322;50.872;4.386;2023-11-22T03:13:25;2.23;;;2.03;;
14472;SDS011;7322;50.872;4.386;2023-11-22T03:15:54;2.20;;;2.00;;
14472;SDS011;7322;50.872;4.386;2023-11-22T03:18:21;2.10;;;1.90;;
14472;SDS011;7322;50.872;4.386;2023-11-22T03:20:48;2.47;;;2.27;;
14472;SDS011;7322;50.872;4.386;2023-11-22T03:23:19;2.30;;;2.10;;
14472;SDS011;7322;50.872;4.386;2023-11-22T03:25:46;2.30;;;2.00;;
14472;SDS011;7322;50.872;4.386;2023-11-22T03:28:13;2.30;;;2.10;;
14472;SDS011;7322;50.872;4.386;2023-11-22T03:30:41;2.03;;;1.83;;
14472;SDS011;7322;50.872;4.386;2023-11-22T03:33:09;2.57;;;2.17;;
14472;SDS011;7322;50.872;4.386;2023-11-22T03:35:36;2.23;;;2.03;;
14472;SDS011;7322;50.872;4.386;2023-11-22T03:38:03;3.30;;;2.40;;
14472;SDS011;7322;50.872;4.386;2023-11-22T03:40:30;2.50;;;2.30;;
14472;SDS011;7322;50.872;4.386;2023-11-22T03:42:57;2.57;;;2.13;;
14472;SDS011;7322;50.872;4.386;2023-11-22T03:45:23;2.37;;;2.17;;
14472;SDS011;7322;50.872;4.386;2023-11-22T03:47:50;2.27;;;2.03;;
14472;SDS011;7322;50.872;4.386;2023-11-22T03:50:19;2.20;;;2.00;;
14472;SDS011;7322;50.872;4.386;2023-11-22T03:52:46;2.43;;;2.23;;
14472;SDS011;7322;50.872;4.386;2023-11-22T03:55:13;2.60;;;2.40;;
14472;SDS011;7322;50.872;4.386;2023-11-22T03:57:40;2.90;;;2.57;;
14472;SDS011;7322;50.872;4.386;2023-11-22T04:00:08;2.60;;;2.40;;
14472;SDS011;7322;50.872;4.386;2023-11-22T04:02:37;2.67;;;2.37;;
14472;SDS011;7322;50.872;4.386;2023-11-22T04:05:05;2.87;;;2.40;;
14472;SDS011;7322;50.872;4.386;2023-11-22T04:07:34;2.50;;;2.30;;
14472;SDS011;7322;50.872;4.386;2023-11-22T04:10:03;2.50;;;2.30;;
14472;SDS011;7322;50.872;4.386;2023-11-22T04:12:32;3.10;;;2.50;;
14472;SDS011;7322;50.872;4.386;2023-11-22T04:14:59;2.30;;;2.10;;
14472;SDS011;7322;50.872;4.386;2023-11-22T04:17:27;4.07;;;2.50;;
14472;SDS011;7322;50.872;4.386;2023-11-22T04:19:54;2.40;;;2.20;;
14472;SDS011;7322;50.872;4.386;2023-11-22T04:22:20;2.70;;;2.50;;
14472;SDS011;7322;50.872;4.386;2023-11-22T04:24:49;2.60;;;2.40;;
14472;SDS011;7322;50.872;4.386;2023-11-22T04:27:16;2.40;;;2.20;;
14472;SDS011;7322;50.872;4.386;2023-11-22T04:29:43;2.50;;;2.30;;
14472;SDS011;7322;50.872;4.386;2023-11-22T04:32:10;2.30;;;2.10;;
14472;SDS011;7322;50.872;4.386;2023-11-22T04:34:37;2.10;;;1.90;;
14472;SDS011;7322;50.872;4.386;2023-11-22T04:37:03;2.67;;;2.40;;
14472;SDS011;7322;50.872;4.386;2023-11-22T04:39:32;2.47;;;2.27;;
14472;SDS011;7322;50.872;4.386;2023-11-22T04:42:01;2.30;;;2.10;;
14472;SDS011;7322;50.872;4.386;2023-11-22T04:44:29;2.30;;;2.10;;
14472;SDS011;7322;50.872;4.386;2023-11-22T04:46:57;2.60;;;2.40;;
14472;SDS011;7322;50.872;4.386;2023-11-22T04:49:24;2.57;;;2.37;;
14472;SDS011;7322;50.872;4.386;2023-11-22T04:51:51;2.97;;;2.43;;
14472;SDS011;7322;50.872;4.386;2023-11-22T04:54:18;2.30;;;2.10;;
14472;SDS011;7322;50.872;4.386;2023-11-22T04:56:45;2.63;;;2.43;;
14472;SDS011;7322;50.872;4.386;2023-11-22T04:59:14;2.50;;;2.30;;
14472;SDS011;7322;50.872;4.386;2023-11-22T05:01:41;2.43;;;2.23;;
14472;SDS011;7322;50.872;4.386;2023-11-22T05:04:07;2.60;;;2.40;;
14472;SDS011;7322;50.872;4.386;2023-11-22T05:06:35;2.50;;;2.30;;
14472;SDS011;7322;50.872;4.386;2023-11-22T05:09:02;2.57;;;2.37;;
14472;SDS011;7322;50.872;4.386;2023-11-22T05:11:30;2.77;;;2.43;;
14472;SDS011;7322;50.872;4.386;2023-11-22T05:13:59;2.63;;;2.30;;
14472;SDS011;7322;50.872;4.386;2023-11-22T05:16:28;2.20;;;2.00;;
14472;SDS011;7322;50.872;4.386;2023-11-22T05:18:55;3.00;;;2.43;;
14472;SDS011;7322;50.872;4.386;2023-11-22T05:21:22;2.83;;;2.40;;
14472;SDS011;7322;50.872;4.386;2023-11-22T05:23:49;2.60;;;2.40;;
14472;SDS011;7322;50.872;4.386;2023-11-22T05:26:17;2.70;;;2.40;;
14472;SDS011;7322;50.872;4.386;2023-11-22T05:28:44;2.63;;;2.43;;
14472;SDS011;7322;50.872;4.386;2023-11-22T05:31:12;2.60;;;2.40;;
14472;SDS011;7322;50.872;4.386;2023-11-22T05:33:40;2.50;;;2.30;;
14472;SDS011;7322;50.872;4.386;2023-11-22T05:36:07;2.50;;;2.30;;
14472;SDS011;7322;50.872;4.386;2023-11-22T05:38:36;3.30;;;3.00;;
14472;SDS011;7322;50.872;4.386;2023-11-22T05:41:05;2.57;;;2.37;;
14472;SDS011;7322;50.872;4.386;2023-11-22T05:43:32;2.70;;;2.50;;
14472;SDS011;7322;50.872;4.386;2023-11-22T05:46:01;2.90;;;2.57;;
14472;SDS011;7322;50.872;4.386;2023-11-22T05:48:28;2.90;;;2.53;;
14472;SDS011;7322;50.872;4.386;2023-11-22T05:50:57;2.63;;;2.43;;
14472;SDS011;7322;50.872;4.386;2023-11-22T05:53:24;2.63;;;2.43;;
14472;SDS011;7322;50.872;4.386;2023-11-22T05:55:51;2.57;;;2.37;;
14472;SDS011;7322;50.872;4.386;2023-11-22T05:58:18;2.63;;;2.43;;
14472;SDS011;7322;50.872;4.386;2023-11-22T06:00:46;2.60;;;2.40;;
14472;SDS011;7322;50.872;4.386;2023-11-22T06:03:13;2.50;;;2.30;;
14472;SDS011;7322;50.872;4.386;2023-11-22T06:05:40;2.70;;;2.40;;
14472;SDS011;7322;50.872;4.386;2023-11-22T06:08:09;2.30;;;2.10;;
14472;SDS011;7322;50.872;4.386;2023-11-22T06:10:36;2.63;;;2.30;;
14472;SDS011;7322;50.872;4.386;2023-11-22T06:13:06;2.47;;;2.00;;
14472;SDS011;7322;50.872;4.386;2023-11-22T06:15:33;2.23;;;2.03;;
14472;SDS011;7322;50.872;4.386;2023-11-22T06:18:00;2.20;;;2.00;;
14472;SDS011;7322;50.872;4.386;2023-11-22T06:20:27;2.13;;;1.93;;
14472;SDS011;7322;50.872;4.386;2023-11-22T06:22:54;2.10;;;1.90;;
14472;SDS011;7322;50.872;4.386;2023-11-22T06:25:23;2.23;;;2.03;;
14472;SDS011;7322;50.872;4.386;2023-11-22T06:27:51;1.87;;;1.77;;
14472;SDS011;7322;50.872;4.386;2023-11-22T06:30:18;2.07;;;1.90;;
14472;SDS011;7322;50.872;4.386;2023-11-22T06:32:45;2.27;;;2.07;;
14472;SDS011;7322;50.872;4.386;2023-11-22T06:35:18;2.40;;;2.20;;
14472;SDS011;7322;50.872;4.386;2023-11-22T06:37:45;2.00;;;1.80;;
14472;SDS011;7322;50.872;4.386;2023-11-22T06:40:18;2.10;;;1.90;;
14472;SDS011;7322;50.872;4.386;2023-11-22T06:46:00;1.90;;;1.80;;
14472;SDS011;7322;50.872;4.386;2023-11-22T06:48:32;2.00;;;1.90;;
14472;SDS011;7322;50.872;4.386;2023-11-22T06:51:17;2.23;;;2.03;;
14472;SDS011;7322;50.872;4.386;2023-11-22T06:59:46;2.43;;;2.23;;
14472;SDS011;7322;50.872;4.386;2023-11-22T07:02:20;2.50;;;2.30;;
14472;SDS011;7322;50.872;4.386;2023-11-22T07:04:47;2.33;;;2.13;;
14472;SDS011;7322;50.872;4.386;2023-11-22T07:10:16;2.67;;;2.37;;
14472;SDS011;7322;50.872;4.386;2023-11-22T07:12:46;2.90;;;2.60;;
14472;SDS011;7322;50.872;4.386;2023-11-22T07:15:20;3.23;;;2.27;;
14472;SDS011;7322;50.872;4.386;2023-11-22T07:17:49;2.80;;;2.60;;
14472;SDS011;7322;50.872;4.386;2023-11-22T07:20:16;2.87;;;2.47;;
14472;SDS011;7322;50.872;4.386;2023-11-22T07:22:43;3.10;;;2.83;;
14472;SDS011;7322;50.872;4.386;2023-11-22T07:25:10;2.67;;;2.47;;
14472;SDS011;7322;50.872;4.386;2023-11-22T07:27:43;3.20;;;2.90;;
14472;SDS011;7322;50.872;4.386;2023-11-22T07:30:12;3.73;;;2.90;;
14472;SDS011;7322;50.872;4.386;2023-11-22T07:32:39;2.90;;;2.53;;
14472;SDS011;7322;50.872;4.386;2023-11-22T07:35:08;4.27;;;2.83;;
14472;SDS011;7322;50.872;4.386;2023-11-22T07:37:35;3.63;;;2.70;;
14472;SDS011;7322;50.872;4.386;2023-11-22T07:40:05;3.17;;;2.40;;
14472;SDS011;7322;50.872;4.386;2023-11-22T07:42:34;3.03;;;2.57;;
14472;SDS011;7322;50.872;4.386;2023-11-22T07:45:01;2.60;;;2.40;;
14472;SDS011;7322;50.872;4.386;2023-11-22T07:47:29;2.63;;;2.43;;
14472;SDS011;7322;50.872;4.386;2023-11-22T07:49:56;3.13;;;2.30;;
14472;SDS011;7322;50.872;4.386;2023-11-22T07:52:28;2.70;;;2.50;;
14472;SDS011;7322;50.872;4.386;2023-11-22T07:54:55;2.37;;;2.17;;
14472;SDS011;7322;50.872;4.386;2023-11-22T07:57:22;2.70;;;2.50;;
14472;SDS011;7322;50.872;4.386;2023-11-22T07:59:50;2.50;;;2.30;;
14472;SDS011;7322;50.872;4.386;2023-11-22T08:02:20;2.30;;;2.10;;
14472;SDS011;7322;50.872;4.386;2023-11-22T08:04:48;2.53;;;2.33;;
14472;SDS011;7322;50.872;4.386;2023-11-22T08:07:16;2.67;;;2.47;;
14472;SDS011;7322;50.872;4.386;2023-11-22T08:09:44;2.50;;;2.30;;
14472;SDS011;7322;50.872;4.386;2023-11-22T08:12:13;3.23;;;2.50;;
14472;SDS011;7322;50.872;4.386;2023-11-22T08:14:40;2.50;;;2.30;;
14472;SDS011;7322;50.872;4.386;2023-11-22T08:17:24;2.77;;;2.57;;
14472;SDS011;7322;50.872;4.386;2023-11-22T08:22:51;3.10;;;2.80;;
14472;SDS011;7322;50.872;4.386;2023-11-22T08:25:20;3.07;;;2.77;;
14472;SDS011;7322;50.872;4.386;2023-11-22T08:27:55;3.30;;;3.00;;
14472;SDS011;7322;50.872;4.386;2023-11-22T08:30:31;3.07;;;2.77;;
14472;SDS011;7322;50.872;4.386;2023-11-22T08:33:02;2.40;;;2.20;;
14472;SDS011;7322;50.872;4.386;2023-11-22T08:35:29;3.53;;;2.93;;
14472;SDS011;7322;50.872;4.386;2023-11-22T08:38:04;3.30;;;3.00;;
14472;SDS011;7322;50.872;4.386;2023-11-22T08:46:04;3.30;;;2.70;;
14472;SDS011;7322;50.872;4.386;2023-11-22T08:48:32;3.10;;;2.77;;
14472;SDS011;7322;50.872;4.386;2023-11-22T08:51:00;3.43;;;3.13;;
14472;SDS011;7322;50.872;4.386;2023-11-22T08:53:29;3.33;;;3.03;;
14472;SDS011;7322;50.872;4.386;2023-11-22T08:56:02;3.60;;;2.80;;
14472;SDS011;7322;50.872;4.386;2023-11-22T08:58:37;3.40;;;3.10;;
14472;SDS011;7322;50.872;4.386;2023-11-22T09:04:29;3.40;;;3.10;;
14472;SDS011;7322;50.872;4.386;2023-11-22T09:06:56;3.50;;;3.20;;
14472;SDS011;7322;50.872;4.386;2023-11-22T09:09:25;3.67;;;3.00;;
14472;SDS011;7322;50.872;4.386;2023-11-22T09:11:59;3.43;;;3.13;;
14472;SDS011;7322;50.872;4.386;2023-11-22T09:14:27;3.50;;;3.20;;
14472;SDS011;7322;50.872;4.386;2023-11-22T09:17:00;3.10;;;2.80;;
14472;SDS011;7322;50.872;4.386;2023-11-22T09:19:31;3.50;;;3.17;;
14472;SDS011;7322;50.872;4.386;2023-11-22T09:22:06;3.10;;;2.80;;
14472;SDS011;7322;50.872;4.386;2023-11-22T09:24:34;3.63;;;3.33;;
14472;SDS011;7322;50.872;4.386;2023-11-22T09:27:18;3.43;;;3.13;;
14472;SDS011;7322;50.872;4.386;2023-11-22T09:32:26;3.90;;;3.50;;
14472;SDS011;7322;50.872;4.386;2023-11-22T09:34:55;3.60;;;3.30;;
14472;SDS011;7322;50.872;4.386;2023-11-22T09:39:58;3.47;;;3.17;;
14472;SDS011;7322;50.872;4.386;2023-11-22T09:42:32;3.50;;;3.20;;
14472;SDS011;7322;50.872;4.386;2023-11-22T09:44:59;3.70;;;3.40;;
14472;SDS011;7322;50.872;4.386;2023-11-22T09:47:30;3.40;;;3.10;;
14472;SDS011;7322;50.872;4.386;2023-11-22T09:50:02;3.53;;;3.23;;
14472;SDS011;7322;50.872;4.386;2023-11-22T09:52:33;3.50;;;3.20;;
14472;SDS011;7322;50.872;4.386;2023-11-22T09:55:11;3.63;;;3.33;;
14472;SDS011;7322;50.872;4.386;2023-11-22T09:57:41;3.57;;;3.23;;
14472;SDS011;7322;50.872;4.386;2023-11-22T10:00:14;3.70;;;3.30;;
14472;SDS011;7322;50.872;4.386;2023-11-22T10:02:49;3.53;;;3.23;;
14472;SDS011;7322;50.872;4.386;2023-11-22T10:08:04;3.77;;;3.47;;
14472;SDS011;7322;50.872;4.386;2023-11-22T10:10:34;3.90;;;3.50;;
14472;SDS011;7322;50.872;4.386;2023-11-22T10:13:04;4.00;;;3.60;;
14472;SDS011;7322;50.872;4.386;2023-11-22T10:15:40;3.57;;;3.27;;
14472;SDS011;7322;50.872;4.386;2023-11-22T10:18:07;3.70;;;3.40;;
14472;SDS011;7322;50.872;4.386;2023-11-22T10:20:36;3.93;;;3.53;;
14472;SDS011;7322;50.872;4.386;2023-11-22T10:23:10;4.00;;;3.47;;
14472;SDS011;7322;50.872;4.386;2023-11-22T10:28:18;3.60;;;3.30;;
14472;SDS011;7322;50.872;4.386;2023-11-22T10:36:35;3.80;;;3.50;;
14472;SDS011;7322;50.872;4.386;2023-11-22T10:39:13;3.50;;;3.20;;
14472;SDS011;7322;50.872;4.386;2023-11-22T10:41:47;3.97;;;3.57;;
14472;SDS011;7322;50.872;4.386;2023-11-22T10:44:20;3.70;;;3.40;;
14472;SDS011;7322;50.872;4.386;2023-11-22T10:46:49;3.93;;;3.53;;
14472;SDS011;7322;50.872;4.386;2023-11-22T10:54:23;5.13;;;3.97;;
14472;SDS011;7322;50.872;4.386;2023-11-22T10:56:51;4.27;;;3.63;;
14472;SDS011;7322;50.872;4.386;2023-11-22T10:59:24;4.20;;;3.80;;
14472;SDS011;7322;50.872;4.386;2023-11-22T11:01:54;4.00;;;3.60;;
14472;SDS011;7322;50.872;4.386;2023-11-22T11:04:27;4.17;;;3.70;;
14472;SDS011;7322;50.872;4.386;2023-11-22T11:07:01;4.30;;;3.90;;
14472;SDS011;7322;50.872;4.386;2023-11-22T11:09:30;4.37;;;3.97;;
14472;SDS011;7322;50.872;4.386;2023-11-22T11:12:00;4.17;;;3.77;;
14472;SDS011;7322;50.872;4.386;2023-11-22T11:14:30;4.37;;;3.97;;
14472;SDS011;7322;50.872;4.386;2023-11-22T11:16:58;4.40;;;4.00;;
14472;SDS011;7322;50.872;4.386;2023-11-22T11:19:26;4.00;;;3.60;;
14472;SDS011;7322;50.872;4.386;2023-11-22T11:21:55;4.33;;;3.93;;
14472;SDS011;7322;50.872;4.386;2023-11-22T11:24:23;5.63;;;4.23;;
14472;SDS011;7322;50.872;4.386;2023-11-22T11:29:34;4.87;;;4.37;;
14472;SDS011;7322;50.872;4.386;2023-11-22T11:32:29;4.40;;;3.97;;
14472;SDS011;7322;50.872;4.386;2023-11-22T11:34:58;5.10;;;4.10;;
14472;SDS011;7322;50.872;4.386;2023-11-22T11:46:13;5.40;;;4.30;;
14472;SDS011;7322;50.872;4.386;2023-11-22T11:51:29;4.40;;;3.97;;
14472;SDS011;7322;50.872;4.386;2023-11-22T11:53:57;4.40;;;4.03;;
14472;SDS011;7322;50.872;4.386;2023-11-22T11:56:25;4.53;;;4.10;;
14472;SDS011;7322;50.872;4.386;2023-11-22T11:59:02;3.90;;;3.50;;
14472;SDS011;7322;50.872;4.386;2023-11-22T12:01:31;4.70;;;3.97;;
14472;SDS011;7322;50.872;4.386;2023-11-22T12:04:03;4.93;;;4.10;;
14472;SDS011;7322;50.872;4.386;2023-11-22T12:09:32;4.27;;;3.63;;
14472;SDS011;7322;50.872;4.386;2023-11-22T12:12:10;4.63;;;4.23;;
14472;SDS011;7322;50.872;4.386;2023-11-22T12:14:53;4.67;;;4.17;;
14472;SDS011;7322;50.872;4.386;2023-11-22T12:17:22;5.57;;;4.47;;
14472;SDS011;7322;50.872;4.386;2023-11-22T12:19:53;5.73;;;4.47;;
14472;SDS011;7322;50.872;4.386;2023-11-22T12:22:34;5.17;;;4.33;;
14472;SDS011;7322;50.872;4.386;2023-11-22T12:25:02;4.73;;;4.27;;
14472;SDS011;7322;50.872;4.386;2023-11-22T12:27:32;6.00;;;4.83;;
14472;SDS011;7322;50.872;4.386;2023-11-22T12:30:01;4.90;;;4.20;;
14472;SDS011;7322;50.872;4.386;2023-11-22T12:32:29;4.67;;;4.27;;
14472;SDS011;7322;50.872;4.386;2023-11-22T12:34:56;4.23;;;3.83;;
14472;SDS011;7322;50.872;4.386;2023-11-22T12:37:24;5.60;;;4.47;;
14472;SDS011;7322;50.872;4.386;2023-11-22T12:39:54;6.10;;;5.40;;
14472;SDS011;7322;50.872;4.386;2023-11-22T12:42:27;6.47;;;5.40;;
14472;SDS011;7322;50.872;4.386;2023-11-22T12:44:57;17.47;;;6.93;;
14472;SDS011;7322;50.872;4.386;2023-11-22T12:47:32;12.83;;;6.43;;
14472;SDS011;7322;50.872;4.386;2023-11-22T12:50:01;12.27;;;6.70;;
14472;SDS011;7322;50.872;4.386;2023-11-22T12:52:29;11.30;;;6.23;;
14472;SDS011;7322;50.872;4.386;2023-11-22T12:54:57;14.83;;;5.90;;
14472;SDS011;7322;50.872;4.386;2023-11-22T12:57:25;11.17;;;5.63;;
14472;SDS011;7322;50.872;4.386;2023-11-22T12:59:51;6.83;;;6.07;;
14472;SDS011;7322;50.872;4.386;2023-11-22T13:02:19;7.93;;;5.93;;
14472;SDS011;7322;50.872;4.386;2023-11-22T13:04:47;13.60;;;6.10;;
14472;SDS011;7322;50.872;4.386;2023-11-22T13:07:14;8.97;;;5.63;;
14472;SDS011;7322;50.872;4.386;2023-11-22T13:09:41;7.67;;;5.63;;
14472;SDS011;7322;50.872;4.386;2023-11-22T13:12:08;6.53;;;5.53;;
14472;SDS011;7322;50.872;4.386;2023-11-22T13:14:35;9.23;;;5.67;;
14472;SDS011;7322;50.872;4.386;2023-11-22T13:17:04;8.93;;;5.37;;
14472;SDS011;7322;50.872;4.386;2023-11-22T13:19:32;8.83;;;5.30;;
14472;SDS011;7322;50.872;4.386;2023-11-22T13:22:01;9.23;;;5.97;;
14472;SDS011;7322;50.872;4.386;2023-11-22T13:24:28;8.87;;;5.10;;
14472;SDS011;7322;50.872;4.386;2023-11-22T13:26:55;8.73;;;5.60;;
14472;SDS011;7322;50.872;4.386;2023-11-22T13:29:24;8.53;;;5.17;;
14472;SDS011;7322;50.872;4.386;2023-11-22T13:31:51;7.70;;;5.47;;
14472;SDS011;7322;50.872;4.386;2023-11-22T13:34:18;6.77;;;5.10;;
14472;SDS011;7322;50.872;4.386;2023-11-22T13:36:45;7.00;;;5.67;;
14472;SDS011;7322;50.872;4.386;2023-11-22T13:39:13;8.10;;;5.17;;
14472;SDS011;7322;50.872;4.386;2023-11-22T13:41:40;6.20;;;4.67;;
14472;SDS011;7322;50.872;4.386;2023-11-22T13:44:08;6.90;;;5.07;;
14472;SDS011;7322;50.872;4.386;2023-11-22T13:49:08;5.53;;;4.80;;
14472;SDS011;7322;50.872;4.386;2023-11-22T13:51:37;6.60;;;5.30;;
14472;SDS011;7322;50.872;4.386;2023-11-22T13:54:04;6.70;;;5.27;;
14472;SDS011;7322;50.872;4.386;2023-11-22T13:56:33;6.87;;;5.23;;
14472;SDS011;7322;50.872;4.386;2023-11-22T13:59:00;7.53;;;5.10;;
14472;SDS011;7322;50.872;4.386;2023-11-22T14:01:28;5.67;;;4.60;;
14472;SDS011;7322;50.872;4.386;2023-11-22T14:03:57;8.27;;;4.83;;
14472;SDS011;7322;50.872;4.386;2023-11-22T14:06:26;6.57;;;5.03;;
14472;SDS011;7322;50.872;4.386;2023-11-22T14:09:02;6.73;;;5.03;;
14472;SDS011;7322;50.872;4.386;2023-11-22T14:11:29;7.30;;;5.10;;
14472;SDS011;7322;50.872;4.386;2023-11-22T14:14:02;8.13;;;4.60;;
14472;SDS011;7322;50.872;4.386;2023-11-22T14:16:31;6.30;;;4.37;;
14472;SDS011;7322;50.872;4.386;2023-11-22T14:19:00;5.37;;;4.83;;
14472;SDS011;7322;50.872;4.386;2023-11-22T14:21:27;7.20;;;4.60;;
14472;SDS011;7322;50.872;4.386;2023-11-22T14:23:58;5.63;;;4.57;;
14472;SDS011;7322;50.872;4.386;2023-11-22T14:29:03;6.57;;;4.67;;
14472;SDS011;7322;50.872;4.386;2023-11-22T14:31:32;4.83;;;4.33;;
14472;SDS011;7322;50.872;4.386;2023-11-22T14:33:59;5.33;;;4.83;;
14472;SDS011;7322;50.872;4.386;2023-11-22T14:36:32;5.80;;;4.60;;
14472;SDS011;7322;50.872;4.386;2023-11-22T14:39:04;6.87;;;4.90;;
14472;SDS011;7322;50.872;4.386;2023-11-22T14:41:32;5.13;;;4.57;;
14472;SDS011;7322;50.872;4.386;2023-11-22T14:44:00;5.07;;;4.30;;
14472;SDS011;7322;50.872;4.386;2023-11-22T14:46:31;6.37;;;4.87;;
14472;SDS011;7322;50.872;4.386;2023-11-22T14:48:59;6.20;;;4.67;;
14472;SDS011;7322;50.872;4.386;2023-11-22T14:53:58;6.83;;;4.90;;
14472;SDS011;7322;50.872;4.386;2023-11-22T14:56:26;5.80;;;4.67;;
14472;SDS011;7322;50.872;4.386;2023-11-22T14:58:53;5.40;;;4.90;;
14472;SDS011;7322;50.872;4.386;2023-11-22T15:01:21;6.90;;;4.43;;
14472;SDS011;7322;50.872;4.386;2023-11-22T15:03:51;5.50;;;4.40;;
14472;SDS011;7322;50.872;4.386;2023-11-22T15:06:19;5.13;;;4.23;;
14472;SDS011;7322;50.872;4.386;2023-11-22T15:08:47;4.83;;;4.33;;
14472;SDS011;7322;50.872;4.386;2023-11-22T15:14:23;5.20;;;4.70;;
14472;SDS011;7322;50.872;4.386;2023-11-22T15:16:51;5.60;;;4.30;;
14472;SDS011;7322;50.872;4.386;2023-11-22T15:19:20;5.00;;;4.47;;
14472;SDS011;7322;50.872;4.386;2023-11-22T15:21:49;4.67;;;4.20;;
14472;SDS011;7322;50.872;4.386;2023-11-22T15:24:19;5.80;;;4.80;;
14472;SDS011;7322;50.872;4.386;2023-11-22T15:26:46;5.20;;;4.57;;
14472;SDS011;7322;50.872;4.386;2023-11-22T15:29:13;5.77;;;4.60;;
14472;SDS011;7322;50.872;4.386;2023-11-22T15:34:12;4.37;;;3.97;;
14472;SDS011;7322;50.872;4.386;2023-11-22T15:36:40;4.60;;;4.13;;
14472;SDS011;7322;50.872;4.386;2023-11-22T15:39:08;4.27;;;3.87;;
14472;SDS011;7322;50.872;4.386;2023-11-22T15:41:41;4.60;;;4.20;;
14472;SDS011;7322;50.872;4.386;2023-11-22T15:44:11;4.93;;;4.13;;
14472;SDS011;7322;50.872;4.386;2023-11-22T15:46:39;5.23;;;4.30;;
14472;SDS011;7322;50.872;4.386;2023-11-22T15:49:07;5.00;;;4.50;;
14472;SDS011;7322;50.872;4.386;2023-11-22T15:51:34;5.20;;;4.07;;
14472;SDS011;7322;50.872;4.386;2023-11-22T15:54:03;5.27;;;4.20;;
14472;SDS011;7322;50.872;4.386;2023-11-22T15:56:31;4.67;;;4.03;;
14472;SDS011;7322;50.872;4.386;2023-11-22T15:59:03;4.50;;;4.10;;
14472;SDS011;7322;50.872;4.386;2023-11-22T16:01:31;4.17;;;3.77;;
14472;SDS011;7322;50.872;4.386;2023-11-22T16:04:10;4.83;;;4.00;;
14472;SDS011;7322;50.872;4.386;2023-11-22T16:06:37;3.70;;;3.40;;
14472;SDS011;7322;50.872;4.386;2023-11-22T16:09:07;5.03;;;4.30;;
14472;SDS011;7322;50.872;4.386;2023-11-22T16:11:35;4.60;;;4.13;;
14472;SDS011;7322;50.872;4.386;2023-11-22T16:14:02;4.80;;;4.30;;
14472;SDS011;7322;50.872;4.386;2023-11-22T16:16:33;4.77;;;4.00;;
14472;SDS011;7322;50.872;4.386;2023-11-22T16:19:03;4.10;;;3.70;;
14472;SDS011;7322;50.872;4.386;2023-11-22T16:21:31;4.40;;;3.70;;
14472;SDS011;7322;50.872;4.386;2023-11-22T16:23:59;3.70;;;3.30;;
14472;SDS011;7322;50.872;4.386;2023-11-22T16:26:27;4.03;;;3.23;;
14472;SDS011;7322;50.872;4.386;2023-11-22T16:28:55;3.50;;;3.20;;